Terminal Aerodrome Forecast
Issued by NWS Amarillo, TX

Home | Current Version | Previous Version | Text Only | Print | Product List | Glossary On
Versions: 1 2 3 4 5 6 7 8 9 10 11 12 13
840
FTUS44 KAMA 190535
TAFAMA
TAF
KAMA 190535Z 1906/2006 16010KT P6SM BKN300
     FM191700 17017G27KT P6SM BKN300
     FM200000 17016KT P6SM SCT100 OVC300=

USA.gov is the U.S. government's official web portal to all federal, state and local government web resources and services.